sensor_id;sensor_type;location;lat;lon;timestamp;pressure;altitude;pressure_sealevel;temperature;humidity
21431;BME280;10876;49.038;10.608;2023-04-10T00:00:20;99372.13;;;1.35;100.00
21431;BME280;10876;49.038;10.608;2023-04-10T00:02:47;99370.09;;;1.07;100.00
21431;BME280;10876;49.038;10.608;2023-04-10T00:05:14;99367.72;;;0.99;100.00
21431;BME280;10876;49.038;10.608;2023-04-10T00:07:41;99359.91;;;0.98;100.00
21431;BME280;10876;49.038;10.608;2023-04-10T00:10:08;99356.59;;;0.96;100.00
21431;BME280;10876;49.038;10.608;2023-04-10T00:12:35;99361.53;;;0.99;100.00
21431;BME280;10876;49.038;10.608;2023-04-10T00:15:04;99351.22;;;0.96;100.00
21431;BME280;10876;49.038;10.608;2023-04-10T00:17:31;99347.72;;;1.19;100.00
21431;BME280;10876;49.038;10.608;2023-04-10T00:19:57;99347.72;;;1.07;100.00
21431;BME280;10876;49.038;10.608;2023-04-10T00:22:25;99346.41;;;0.98;100.00
21431;BME280;10876;49.038;10.608;2023-04-10T00:24:51;99340.88;;;0.93;100.00
21431;BME280;10876;49.038;10.608;2023-04-10T00:27:18;99336.19;;;1.00;100.00
21431;BME280;10876;49.038;10.608;2023-04-10T00:29:45;99332.66;;;0.87;100.00
21431;BME280;10876;49.038;10.608;2023-04-10T00:32:13;99322.81;;;0.81;100.00
21431;BME280;10876;49.038;10.608;2023-04-10T00:34:40;99317.16;;;0.71;100.00
21431;BME280;10876;49.038;10.608;2023-04-10T00:37:06;99315.78;;;0.80;100.00
21431;BME280;10876;49.038;10.608;2023-04-10T00:39:33;99320.47;;;0.97;100.00
21431;BME280;10876;49.038;10.608;2023-04-10T00:42:00;99316.75;;;1.09;100.00
21431;BME280;10876;49.038;10.608;2023-04-10T00:44:27;99312.97;;;0.87;100.00
21431;BME280;10876;49.038;10.608;2023-04-10T00:46:54;99313.53;;;0.77;100.00
21431;BME280;10876;49.038;10.608;2023-04-10T00:49:22;99303.00;;;0.76;100.00
21431;BME280;10876;49.038;10.608;2023-04-10T00:51:49;99318.81;;;0.72;100.00
21431;BME280;10876;49.038;10.608;2023-04-10T00:54:15;99316.22;;;0.77;100.00
21431;BME280;10876;49.038;10.608;2023-04-10T00:56:43;99309.94;;;0.83;100.00
21431;BME280;10876;49.038;10.608;2023-04-10T00:59:11;99306.78;;;0.86;100.00
21431;BME280;10876;49.038;10.608;2023-04-10T01:01:37;99301.47;;;0.80;100.00
21431;BME280;10876;49.038;10.608;2023-04-10T01:04:04;99301.44;;;0.68;100.00
21431;BME280;10876;49.038;10.608;2023-04-10T01:06:56;99301.91;;;0.65;100.00
21431;BME280;10876;49.038;10.608;2023-04-10T01:09:31;99302.72;;;0.65;100.00
21431;BME280;10876;49.038;10.608;2023-04-10T01:12:17;99304.94;;;0.57;100.00
21431;BME280;10876;49.038;10.608;2023-04-10T01:14:52;99296.03;;;0.44;100.00
21431;BME280;10876;49.038;10.608;2023-04-10T01:17:29;99302.16;;;0.52;100.00
21431;BME280;10876;49.038;10.608;2023-04-10T01:20:02;99289.25;;;0.54;100.00
21431;BME280;10876;49.038;10.608;2023-04-10T01:22:36;99288.41;;;0.53;100.00
21431;BME280;10876;49.038;10.608;2023-04-10T01:25:29;99287.59;;;0.53;100.00
21431;BME280;10876;49.038;10.608;2023-04-10T01:28:15;99286.47;;;0.72;100.00
21431;BME280;10876;49.038;10.608;2023-04-10T01:30:48;99286.34;;;0.67;100.00
21431;BME280;10876;49.038;10.608;2023-04-10T01:33:18;99286.69;;;0.59;100.00
21431;BME280;10876;49.038;10.608;2023-04-10T01:35:48;99293.81;;;0.53;100.00
21431;BME280;10876;49.038;10.608;2023-04-10T01:38:16;99286.47;;;0.72;100.00
21431;BME280;10876;49.038;10.608;2023-04-10T01:40:44;99286.47;;;0.72;100.00
21431;BME280;10876;49.038;10.608;2023-04-10T01:43:16;99298.38;;;0.53;100.00
21431;BME280;10876;49.038;10.608;2023-04-10T01:45:45;99288.63;;;0.40;100.00
21431;BME280;10876;49.038;10.608;2023-04-10T01:48:14;99292.50;;;0.14;100.00
21431;BME280;10876;49.038;10.608;2023-04-10T01:50:43;99282.34;;;0.16;100.00
21431;BME280;10876;49.038;10.608;2023-04-10T01:53:11;99284.13;;;0.22;100.00
21431;BME280;10876;49.038;10.608;2023-04-10T01:55:39;99288.97;;;0.32;100.00
21431;BME280;10876;49.038;10.608;2023-04-10T01:58:06;99289.19;;;0.30;100.00
21431;BME280;10876;49.038;10.608;2023-04-10T02:00:36;99285.56;;;0.36;100.00
21431;BME280;10876;49.038;10.608;2023-04-10T02:03:04;99284.53;;;0.37;100.00
21431;BME280;10876;49.038;10.608;2023-04-10T02:05:40;99282.63;;;0.26;100.00
21431;BME280;10876;49.038;10.608;2023-04-10T02:08:14;99264.31;;;0.16;100.00
21431;BME280;10876;49.038;10.608;2023-04-10T02:10:47;99255.56;;;0.21;100.00
21431;BME280;10876;49.038;10.608;2023-04-10T02:13:18;99253.97;;;0.43;100.00
21431;BME280;10876;49.038;10.608;2023-04-10T02:15:47;99251.75;;;0.40;100.00
21431;BME280;10876;49.038;10.608;2023-04-10T02:18:17;99244.16;;;0.49;100.00
21431;BME280;10876;49.038;10.608;2023-04-10T02:20:46;99250.59;;;0.60;100.00
21431;BME280;10876;49.038;10.608;2023-04-10T02:23:15;99255.13;;;0.48;100.00
21431;BME280;10876;49.038;10.608;2023-04-10T02:25:42;99246.38;;;0.52;100.00
21431;BME280;10876;49.038;10.608;2023-04-10T02:28:08;99243.41;;;0.42;100.00
21431;BME280;10876;49.038;10.608;2023-04-10T02:30:35;99247.72;;;0.31;100.00
21431;BME280;10876;49.038;10.608;2023-04-10T02:33:03;99260.22;;;0.26;100.00
21431;BME280;10876;49.038;10.608;2023-04-10T02:35:30;99255.69;;;0.26;100.00
21431;BME280;10876;49.038;10.608;2023-04-10T02:38:00;99253.84;;;0.38;100.00
21431;BME280;10876;49.038;10.608;2023-04-10T02:40:27;99258.56;;;0.55;100.00
21431;BME280;10876;49.038;10.608;2023-04-10T02:42:54;99254.81;;;0.67;100.00
21431;BME280;10876;49.038;10.608;2023-04-10T02:45:22;99262.31;;;0.77;100.00
21431;BME280;10876;49.038;10.608;2023-04-10T02:47:49;99262.91;;;0.67;100.00
21431;BME280;10876;49.038;10.608;2023-04-10T02:50:16;99260.00;;;0.69;100.00
21431;BME280;10876;49.038;10.608;2023-04-10T02:52:42;99261.75;;;0.63;100.00
21431;BME280;10876;49.038;10.608;2023-04-10T02:55:11;99254.06;;;0.49;100.00
21431;BME280;10876;49.038;10.608;2023-04-10T02:57:38;99250.84;;;0.70;100.00
21431;BME280;10876;49.038;10.608;2023-04-10T03:00:06;99251.78;;;0.87;100.00
21431;BME280;10876;49.038;10.608;2023-04-10T03:02:32;99246.50;;;0.93;100.00
21431;BME280;10876;49.038;10.608;2023-04-10T03:04:59;99260.13;;;0.86;100.00
21431;BME280;10876;49.038;10.608;2023-04-10T03:07:26;99258.59;;;0.78;100.00
21431;BME280;10876;49.038;10.608;2023-04-10T03:09:53;99269.34;;;0.55;100.00
21431;BME280;10876;49.038;10.608;2023-04-10T03:12:21;99261.59;;;0.47;100.00
21431;BME280;10876;49.038;10.608;2023-04-10T03:14:48;99265.31;;;0.45;100.00
21431;BME280;10876;49.038;10.608;2023-04-10T03:17:15;99263.06;;;0.31;100.00
21431;BME280;10876;49.038;10.608;2023-04-10T03:19:42;99260.47;;;0.24;100.00
21431;BME280;10876;49.038;10.608;2023-04-10T03:22:08;99268.75;;;0.11;100.00
21431;BME280;10876;49.038;10.608;2023-04-10T03:24:36;99273.47;;;-0.03;100.00
21431;BME280;10876;49.038;10.608;2023-04-10T03:27:04;99269.56;;;-0.19;100.00
21431;BME280;10876;49.038;10.608;2023-04-10T03:29:32;99274.13;;;-0.19;100.00
21431;BME280;10876;49.038;10.608;2023-04-10T03:31:59;99259.16;;;-0.15;100.00
21431;BME280;10876;49.038;10.608;2023-04-10T03:34:25;99262.09;;;-0.17;100.00
21431;BME280;10876;49.038;10.608;2023-04-10T03:36:52;99268.44;;;-0.30;100.00
21431;BME280;10876;49.038;10.608;2023-04-10T03:39:19;99260.94;;;-0.39;100.00
21431;BME280;10876;49.038;10.608;2023-04-10T03:41:46;99259.91;;;-0.57;100.00
21431;BME280;10876;49.038;10.608;2023-04-10T03:44:12;99263.91;;;-0.66;100.00
21431;BME280;10876;49.038;10.608;2023-04-10T03:46:41;99255.53;;;-0.58;100.00
21431;BME280;10876;49.038;10.608;2023-04-10T03:49:07;99246.00;;;-0.54;100.00
21431;BME280;10876;49.038;10.608;2023-04-10T03:51:34;99227.31;;;-0.49;100.00
21431;BME280;10876;49.038;10.608;2023-04-10T03:54:01;99213.25;;;-0.51;100.00
21431;BME280;10876;49.038;10.608;2023-04-10T03:56:28;99206.63;;;-0.48;100.00
21431;BME280;10876;49.038;10.608;2023-04-10T03:58:54;99206.50;;;-0.41;100.00
21431;BME280;10876;49.038;10.608;2023-04-10T04:01:21;99197.38;;;-0.40;100.00
21431;BME280;10876;49.038;10.608;2023-04-10T04:03:49;99208.59;;;-0.43;100.00
21431;BME280;10876;49.038;10.608;2023-04-10T04:06:16;99207.13;;;-0.39;100.00
21431;BME280;10876;49.038;10.608;2023-04-10T04:08:43;99210.34;;;-0.19;100.00
21431;BME280;10876;49.038;10.608;2023-04-10T04:11:09;99219.50;;;-0.20;100.00
21431;BME280;10876;49.038;10.608;2023-04-10T04:13:36;99219.06;;;-0.35;100.00
21431;BME280;10876;49.038;10.608;2023-04-10T04:16:04;99203.78;;;-0.23;100.00
21431;BME280;10876;49.038;10.608;2023-04-10T04:18:30;99220.13;;;-0.36;100.00
21431;BME280;10876;49.038;10.608;2023-04-10T04:20:58;99215.66;;;-0.42;100.00
21431;BME280;10876;49.038;10.608;2023-04-10T04:23:25;99225.19;;;-0.47;100.00
21431;BME280;10876;49.038;10.608;2023-04-10T04:25:53;99222.34;;;-0.52;100.00
21431;BME280;10876;49.038;10.608;2023-04-10T04:28:21;99230.53;;;-0.58;100.00
21431;BME280;10876;49.038;10.608;2023-04-10T04:30:48;99232.09;;;-0.69;100.00
21431;BME280;10876;49.038;10.608;2023-04-10T04:33:14;99229.84;;;-0.54;100.00
21431;BME280;10876;49.038;10.608;2023-04-10T04:35:41;99231.94;;;-0.56;100.00
21431;BME280;10876;49.038;10.608;2023-04-10T04:38:09;99237.69;;;-0.52;100.00
21431;BME280;10876;49.038;10.608;2023-04-10T04:40:36;99235.91;;;-0.58;100.00
21431;BME280;10876;49.038;10.608;2023-04-10T04:43:02;99239.13;;;-0.68;100.00
21431;BME280;10876;49.038;10.608;2023-04-10T04:45:29;99245.09;;;-0.66;100.00
21431;BME280;10876;49.038;10.608;2023-04-10T04:47:56;99242.47;;;-0.73;100.00
21431;BME280;10876;49.038;10.608;2023-04-10T04:50:22;99251.25;;;-0.77;100.00
21431;BME280;10876;49.038;10.608;2023-04-10T04:52:49;99256.91;;;-0.67;100.00
21431;BME280;10876;49.038;10.608;2023-04-10T04:55:17;99260.09;;;-0.58;100.00
21431;BME280;10876;49.038;10.608;2023-04-10T04:57:44;99253.75;;;-0.46;100.00
21431;BME280;10876;49.038;10.608;2023-04-10T05:00:11;99257.28;;;-0.15;100.00
21431;BME280;10876;49.038;10.608;2023-04-10T05:02:38;99246.09;;;0.30;100.00
21431;BME280;10876;49.038;10.608;2023-04-10T05:05:05;99231.34;;;0.44;100.00
21431;BME280;10876;49.038;10.608;2023-04-10T05:07:32;99227.28;;;0.77;100.00
21431;BME280;10876;49.038;10.608;2023-04-10T05:09:59;99225.72;;;1.28;100.00
21431;BME280;10876;49.038;10.608;2023-04-10T05:12:28;99225.22;;;1.31;100.00
21431;BME280;10876;49.038;10.608;2023-04-10T05:14:55;99232.69;;;1.53;100.00
21431;BME280;10876;49.038;10.608;2023-04-10T05:17:21;99253.25;;;1.42;100.00
21431;BME280;10876;49.038;10.608;2023-04-10T05:19:48;99272.47;;;1.98;100.00
21431;BME280;10876;49.038;10.608;2023-04-10T05:22:15;99287.44;;;2.34;100.00
21431;BME280;10876;49.038;10.608;2023-04-10T05:24:42;99288.63;;;2.38;100.00
21431;BME280;10876;49.038;10.608;2023-04-10T05:27:08;99278.44;;;3.30;100.00
21431;BME280;10876;49.038;10.608;2023-04-10T05:50:38;99262.97;;;7.17;100.00
21431;BME280;10876;49.038;10.608;2023-04-10T05:53:05;99290.16;;;7.53;100.00
21431;BME280;10876;49.038;10.608;2023-04-10T05:55:32;99329.41;;;7.62;100.00
21431;BME280;10876;49.038;10.608;2023-04-10T05:57:59;99327.09;;;7.95;100.00
21431;BME280;10876;49.038;10.608;2023-04-10T06:00:26;99398.72;;;8.37;100.00
21431;BME280;10876;49.038;10.608;2023-04-10T06:02:53;99425.78;;;8.23;100.00
21431;BME280;10876;49.038;10.608;2023-04-10T06:05:20;99441.56;;;8.46;100.00
21431;BME280;10876;49.038;10.608;2023-04-10T06:07:49;99436.19;;;8.91;100.00
21431;BME280;10876;49.038;10.608;2023-04-10T06:10:16;99432.28;;;8.47;100.00
21431;BME280;10876;49.038;10.608;2023-04-10T06:12:43;99431.75;;;8.40;100.00
21431;BME280;10876;49.038;10.608;2023-04-10T06:15:10;99410.63;;;8.61;100.00
21431;BME280;10876;49.038;10.608;2023-04-10T06:17:47;99429.88;;;8.15;100.00
21431;BME280;10876;49.038;10.608;2023-04-10T06:20:29;99429.69;;;7.81;100.00
21431;BME280;10876;49.038;10.608;2023-04-10T06:22:58;99427.94;;;8.31;100.00
21431;BME280;10876;49.038;10.608;2023-04-10T06:25:25;99427.94;;;8.36;100.00
21431;BME280;10876;49.038;10.608;2023-04-10T06:27:52;99425.06;;;8.72;100.00
21431;BME280;10876;49.038;10.608;2023-04-10T06:30:19;99430.06;;;8.60;100.00
21431;BME280;10876;49.038;10.608;2023-04-10T06:32:46;99416.69;;;9.02;100.00
21431;BME280;10876;49.038;10.608;2023-04-10T06:35:13;99422.88;;;8.74;100.00
21431;BME280;10876;49.038;10.608;2023-04-10T06:37:41;99422.59;;;9.20;100.00
21431;BME280;10876;49.038;10.608;2023-04-10T06:40:12;99419.88;;;9.83;100.00
21431;BME280;10876;49.038;10.608;2023-04-10T06:42:40;99422.47;;;9.99;100.00
21431;BME280;10876;49.038;10.608;2023-04-10T06:45:07;99431.09;;;10.11;100.00
21431;BME280;10876;49.038;10.608;2023-04-10T06:47:34;99413.50;;;9.93;100.00
21431;BME280;10876;49.038;10.608;2023-04-10T06:50:02;99423.53;;;10.03;100.00
21431;BME280;10876;49.038;10.608;2023-04-10T06:52:43;99428.63;;;9.85;100.00
21431;BME280;10876;49.038;10.608;2023-04-10T06:55:11;99422.22;;;10.67;100.00
21431;BME280;10876;49.038;10.608;2023-04-10T06:57:38;99424.31;;;11.51;100.00
21431;BME280;10876;49.038;10.608;2023-04-10T07:00:07;99440.13;;;11.21;100.00
21431;BME280;10876;49.038;10.608;2023-04-10T07:02:34;99442.19;;;10.92;100.00
21431;BME280;10876;49.038;10.608;2023-04-10T07:05:01;99447.25;;;11.03;100.00
21431;BME280;10876;49.038;10.608;2023-04-10T07:07:28;99452.88;;;10.93;100.00
21431;BME280;10876;49.038;10.608;2023-04-10T07:09:55;99459.59;;;11.01;100.00
21431;BME280;10876;49.038;10.608;2023-04-10T07:12:24;99471.06;;;10.84;100.00
21431;BME280;10876;49.038;10.608;2023-04-10T07:14:51;99471.47;;;11.15;100.00
21431;BME280;10876;49.038;10.608;2023-04-10T07:17:18;99463.00;;;10.93;100.00
21431;BME280;10876;49.038;10.608;2023-04-10T07:19:45;99470.56;;;10.82;100.00
21431;BME280;10876;49.038;10.608;2023-04-10T07:22:12;99463.19;;;11.20;100.00
21431;BME280;10876;49.038;10.608;2023-04-10T07:24:40;99475.78;;;11.21;100.00
21431;BME280;10876;49.038;10.608;2023-04-10T07:27:07;99468.53;;;11.31;100.00
21431;BME280;10876;49.038;10.608;2023-04-10T07:29:35;99478.53;;;11.40;100.00
21431;BME280;10876;49.038;10.608;2023-04-10T07:32:04;99474.44;;;11.38;100.00
21431;BME280;10876;49.038;10.608;2023-04-10T07:34:31;99481.34;;;11.35;100.00
21431;BME280;10876;49.038;10.608;2023-04-10T07:36:58;99485.03;;;11.63;100.00
21431;BME280;10876;49.038;10.608;2023-04-10T07:39:26;99490.16;;;11.51;100.00
21431;BME280;10876;49.038;10.608;2023-04-10T07:41:53;99486.03;;;11.67;100.00
21431;BME280;10876;49.038;10.608;2023-04-10T07:44:20;99488.50;;;11.88;100.00
21431;BME280;10876;49.038;10.608;2023-04-10T07:46:48;99493.88;;;12.26;100.00
21431;BME280;10876;49.038;10.608;2023-04-10T07:49:16;99506.56;;;11.56;100.00
21431;BME280;10876;49.038;10.608;2023-04-10T07:51:43;99496.34;;;11.76;100.00
21431;BME280;10876;49.038;10.608;2023-04-10T07:54:10;99493.00;;;11.98;100.00
21431;BME280;10876;49.038;10.608;2023-04-10T07:56:37;99499.66;;;12.24;100.00
21431;BME280;10876;49.038;10.608;2023-04-10T07:59:07;99507.47;;;12.03;100.00
21431;BME280;10876;49.038;10.608;2023-04-10T08:01:34;99514.41;;;12.14;100.00
21431;BME280;10876;49.038;10.608;2023-04-10T08:04:03;99506.31;;;12.37;100.00
21431;BME280;10876;49.038;10.608;2023-04-10T08:06:30;99508.22;;;12.23;100.00
21431;BME280;10876;49.038;10.608;2023-04-10T08:08:57;99509.94;;;12.18;100.00
21431;BME280;10876;49.038;10.608;2023-04-10T08:11:33;99507.31;;;12.41;100.00
21431;BME280;10876;49.038;10.608;2023-04-10T08:14:04;99512.63;;;12.79;100.00
21431;BME280;10876;49.038;10.608;2023-04-10T08:16:35;99512.44;;;12.61;100.00
21431;BME280;10876;49.038;10.608;2023-04-10T08:19:07;99515.06;;;12.39;100.00
21431;BME280;10876;49.038;10.608;2023-04-10T08:21:38;99512.13;;;12.49;100.00
21431;BME280;10876;49.038;10.608;2023-04-10T08:24:05;99516.59;;;12.73;100.00
21431;BME280;10876;49.038;10.608;2023-04-10T08:26:32;99523.66;;;12.65;100.00
21431;BME280;10876;49.038;10.608;2023-04-10T08:29:00;99516.13;;;12.71;100.00
21431;BME280;10876;49.038;10.608;2023-04-10T08:31:28;99515.47;;;13.01;100.00
21431;BME280;10876;49.038;10.608;2023-04-10T08:33:55;99512.22;;;12.44;100.00
21431;BME280;10876;49.038;10.608;2023-04-10T08:36:23;99517.22;;;12.70;100.00
21431;BME280;10876;49.038;10.608;2023-04-10T08:38:51;99517.22;;;12.56;100.00
21431;BME280;10876;49.038;10.608;2023-04-10T08:41:19;99514.09;;;12.76;100.00
21431;BME280;10876;49.038;10.608;2023-04-10T08:43:46;99507.22;;;13.29;100.00
21431;BME280;10876;49.038;10.608;2023-04-10T08:46:14;99503.47;;;13.11;100.00
21431;BME280;10876;49.038;10.608;2023-04-10T08:48:46;99516.88;;;13.13;100.00
21431;BME280;10876;49.038;10.608;2023-04-10T08:51:17;99498.34;;;13.18;100.00
21431;BME280;10876;49.038;10.608;2023-04-10T08:53:50;99491.41;;;13.21;100.00
21431;BME280;10876;49.038;10.608;2023-04-10T08:56:17;99492.03;;;13.04;100.00
21431;BME280;10876;49.038;10.608;2023-04-10T08:58:45;99490.69;;;13.65;100.00
21431;BME280;10876;49.038;10.608;2023-04-10T09:01:14;99473.69;;;13.27;100.00
21431;BME280;10876;49.038;10.608;2023-04-10T09:03:41;99485.19;;;13.65;100.00
21431;BME280;10876;49.038;10.608;2023-04-10T09:06:09;99481.59;;;13.87;100.00
21431;BME280;10876;49.038;10.608;2023-04-10T09:08:36;99482.81;;;13.95;100.00
21431;BME280;10876;49.038;10.608;2023-04-10T09:11:10;99471.25;;;14.47;100.00
21431;BME280;10876;49.038;10.608;2023-04-10T09:13:39;99455.19;;;14.09;100.00
21431;BME280;10876;49.038;10.608;2023-04-10T09:16:07;99449.38;;;14.19;100.00
21431;BME280;10876;49.038;10.608;2023-04-10T09:18:42;99448.13;;;14.25;100.00
21431;BME280;10876;49.038;10.608;2023-04-10T09:21:10;99445.72;;;14.72;100.00
21431;BME280;10876;49.038;10.608;2023-04-10T09:23:37;99431.06;;;14.14;100.00
21431;BME280;10876;49.038;10.608;2023-04-10T09:26:22;99419.88;;;14.11;100.00
21431;BME280;10876;49.038;10.608;2023-04-10T09:29:00;99425.94;;;14.30;100.00
21431;BME280;10876;49.038;10.608;2023-04-10T09:31:32;99422.84;;;14.23;100.00
21431;BME280;10876;49.038;10.608;2023-04-10T09:34:08;99424.50;;;14.41;100.00
21431;BME280;10876;49.038;10.608;2023-04-10T09:36:35;99424.16;;;14.66;100.00
21431;BME280;10876;49.038;10.608;2023-04-10T09:39:02;99421.13;;;14.45;100.00
21431;BME280;10876;49.038;10.608;2023-04-10T09:41:32;99412.34;;;14.34;100.00
21431;BME280;10876;49.038;10.608;2023-04-10T09:44:05;99404.84;;;14.57;100.00
21431;BME280;10876;49.038;10.608;2023-04-10T09:46:32;99410.34;;;14.17;100.00
21431;BME280;10876;49.038;10.608;2023-04-10T09:48:59;99403.91;;;13.99;100.00
21431;BME280;10876;49.038;10.608;2023-04-10T09:51:31;99392.16;;;14.56;100.00
21431;BME280;10876;49.038;10.608;2023-04-10T09:53:58;99391.38;;;14.64;100.00
21431;BME280;10876;49.038;10.608;2023-04-10T09:56:27;99381.06;;;14.38;100.00
21431;BME280;10876;49.038;10.608;2023-04-10T09:58:58;99370.66;;;14.35;100.00
21431;BME280;10876;49.038;10.608;2023-04-10T10:01:26;99370.47;;;14.23;100.00
21431;BME280;10876;49.038;10.608;2023-04-10T10:03:54;99351.75;;;14.51;100.00
21431;BME280;10876;49.038;10.608;2023-04-10T10:06:24;99347.84;;;14.43;100.00
21431;BME280;10876;49.038;10.608;2023-04-10T10:08:51;99334.47;;;14.68;100.00
21431;BME280;10876;49.038;10.608;2023-04-10T10:11:22;99338.28;;;14.50;100.00
21431;BME280;10876;49.038;10.608;2023-04-10T10:13:50;99322.50;;;14.33;100.00
21431;BME280;10876;49.038;10.608;2023-04-10T10:16:28;99325.03;;;14.52;100.00
21431;BME280;10876;49.038;10.608;2023-04-10T10:19:01;99309.44;;;14.56;100.00
21431;BME280;10876;49.038;10.608;2023-04-10T10:21:32;99311.09;;;14.92;100.00
21431;BME280;10876;49.038;10.608;2023-04-10T10:24:01;99295.19;;;15.06;100.00
21431;BME280;10876;49.038;10.608;2023-04-10T10:26:29;99299.72;;;15.10;100.00
21431;BME280;10876;49.038;10.608;2023-04-10T10:28:57;99298.31;;;15.60;100.00
21431;BME280;10876;49.038;10.608;2023-04-10T10:31:26;99297.22;;;15.44;100.00
21431;BME280;10876;49.038;10.608;2023-04-10T10:33:57;99302.03;;;15.64;100.00
21431;BME280;10876;49.038;10.608;2023-04-10T10:36:27;99296.94;;;15.84;100.00
21431;BME280;10876;49.038;10.608;2023-04-10T10:39:00;99305.53;;;15.91;100.00
21431;BME280;10876;49.038;10.608;2023-04-10T10:41:39;99288.22;;;15.73;100.00
21431;BME280;10876;49.038;10.608;2023-04-10T10:44:12;99278.84;;;15.48;100.00
21431;BME280;10876;49.038;10.608;2023-04-10T10:46:45;99278.91;;;15.30;100.00
21431;BME280;10876;49.038;10.608;2023-04-10T10:49:14;99287.41;;;15.72;100.00
21431;BME280;10876;49.038;10.608;2023-04-10T10:51:42;99274.47;;;15.47;100.00
21431;BME280;10876;49.038;10.608;2023-04-10T10:54:32;99265.16;;;14.87;100.00
21431;BME280;10876;49.038;10.608;2023-04-10T10:57:01;99258.81;;;15.04;100.00
21431;BME280;10876;49.038;10.608;2023-04-10T10:59:54;99284.81;;;14.94;100.00
21431;BME280;10876;49.038;10.608;2023-04-10T11:02:23;99283.13;;;15.37;100.00
21431;BME280;10876;49.038;10.608;2023-04-10T11:04:50;99283.72;;;15.51;100.00
21431;BME280;10876;49.038;10.608;2023-04-10T11:07:17;99273.84;;;15.41;100.00
21431;BME280;10876;49.038;10.608;2023-04-10T11:09:49;99267.41;;;15.75;100.00
21431;BME280;10876;49.038;10.608;2023-04-10T11:12:19;99277.13;;;15.82;100.00
21431;BME280;10876;49.038;10.608;2023-04-10T11:14:56;99285.75;;;15.80;100.00
21431;BME280;10876;49.038;10.608;2023-04-10T11:17:47;99263.91;;;15.49;100.00
21431;BME280;10876;49.038;10.608;2023-04-10T11:20:15;99269.06;;;15.68;100.00
21431;BME280;10876;49.038;10.608;2023-04-10T11:23:09;99235.44;;;15.10;100.00
21431;BME280;10876;49.038;10.608;2023-04-10T11:25:47;99248.59;;;15.69;100.00
21431;BME280;10876;49.038;10.608;2023-04-10T11:28:33;99243.78;;;16.16;100.00
21431;BME280;10876;49.038;10.608;2023-04-10T11:31:13;99231.34;;;16.02;100.00
21431;BME280;10876;49.038;10.608;2023-04-10T11:33:41;99231.88;;;15.65;100.00
21431;BME280;10876;49.038;10.608;2023-04-10T11:36:08;99238.22;;;15.57;100.00
21431;BME280;10876;49.038;10.608;2023-04-10T11:38:36;99221.59;;;15.74;100.00
21431;BME280;10876;49.038;10.608;2023-04-10T11:41:03;99229.53;;;15.38;100.00
21431;BME280;10876;49.038;10.608;2023-04-10T11:43:31;99226.56;;;15.51;100.00
21431;BME280;10876;49.038;10.608;2023-04-10T11:46:04;99220.69;;;15.53;100.00
21431;BME280;10876;49.038;10.608;2023-04-10T11:48:36;99228.28;;;16.03;100.00
21431;BME280;10876;49.038;10.608;2023-04-10T11:51:08;99211.03;;;15.29;100.00
21431;BME280;10876;49.038;10.608;2023-04-10T11:53:36;99218.19;;;15.22;100.00
21431;BME280;10876;49.038;10.608;2023-04-10T11:56:03;99206.84;;;15.23;100.00
21431;BME280;10876;49.038;10.608;2023-04-10T11:58:32;99217.00;;;15.40;100.00
21431;BME280;10876;49.038;10.608;2023-04-10T12:01:01;99201.84;;;14.99;100.00
21431;BME280;10876;49.038;10.608;2023-04-10T12:03:36;99209.72;;;15.36;100.00
21431;BME280;10876;49.038;10.608;2023-04-10T12:06:06;99212.88;;;15.55;100.00
21431;BME280;10876;49.038;10.608;2023-04-10T12:08:36;99194.41;;;15.08;100.00
21431;BME280;10876;49.038;10.608;2023-04-10T12:11:04;99195.97;;;15.18;100.00
21431;BME280;10876;49.038;10.608;2023-04-10T12:13:31;99193.25;;;15.48;100.00
21431;BME280;10876;49.038;10.608;2023-04-10T12:16:00;99186.88;;;15.18;100.00
21431;BME280;10876;49.038;10.608;2023-04-10T12:18:28;99187.63;;;15.36;100.00
21431;BME280;10876;49.038;10.608;2023-04-10T12:20:57;99179.44;;;15.48;100.00
21431;BME280;10876;49.038;10.608;2023-04-10T12:23:25;99178.66;;;16.07;100.00
21431;BME280;10876;49.038;10.608;2023-04-10T12:26:06;99171.03;;;15.83;100.00
21431;BME280;10876;49.038;10.608;2023-04-10T12:28:35;99160.06;;;15.57;100.00
21431;BME280;10876;49.038;10.608;2023-04-10T12:31:02;99161.94;;;16.03;100.00
21431;BME280;10876;49.038;10.608;2023-04-10T12:33:29;99144.16;;;15.92;100.00
21431;BME280;10876;49.038;10.608;2023-04-10T12:35:56;99138.75;;;16.16;100.00
21431;BME280;10876;49.038;10.608;2023-04-10T12:38:37;99131.47;;;15.91;100.00
21431;BME280;10876;49.038;10.608;2023-04-10T12:41:06;99139.88;;;15.73;100.00
21431;BME280;10876;49.038;10.608;2023-04-10T12:43:35;99134.63;;;15.81;100.00
21431;BME280;10876;49.038;10.608;2023-04-10T12:46:03;99128.81;;;15.44;100.00
21431;BME280;10876;49.038;10.608;2023-04-10T12:48:31;99136.53;;;16.10;100.00
21431;BME280;10876;49.038;10.608;2023-04-10T12:50:59;99118.88;;;15.51;100.00
21431;BME280;10876;49.038;10.608;2023-04-10T12:53:26;99110.44;;;15.18;100.00
21431;BME280;10876;49.038;10.608;2023-04-10T12:56:01;99126.28;;;15.68;100.00
21431;BME280;10876;49.038;10.608;2023-04-10T12:58:31;99107.09;;;15.33;100.00
21431;BME280;10876;49.038;10.608;2023-04-10T13:01:02;99121.84;;;15.67;100.00
21431;BME280;10876;49.038;10.608;2023-04-10T13:03:29;99112.81;;;15.58;100.00
21431;BME280;10876;49.038;10.608;2023-04-10T13:05:56;99105.56;;;15.15;100.00
21431;BME280;10876;49.038;10.608;2023-04-10T13:08:23;99105.78;;;15.40;100.00
21431;BME280;10876;49.038;10.608;2023-04-10T13:10:50;99112.13;;;15.91;100.00
21431;BME280;10876;49.038;10.608;2023-04-10T13:13:17;99106.41;;;15.96;100.00